Airports Montenegro Tivat Airport

Tivat Airport (LYTV / TIV)

Facts about Tivat Airport

Name Tivat Airport
City Tivat
Country Montenegro
ICAO code LYTV
IATA code TIV
Elevation 6.0960 meters (20 feet)

Weather

METAR

Metar data retrieved Friday, 19 July 2024 at 23:25 UTC (0 minutes ago)

LYTV 192300Z AUTO VRB02KT CAVOK 24/21 Q1010

Live traffic

Navigraph Charts (account required)